Time,TemperatureF,DewpointF,PressureIn,WindDirection,WindDirectionDegrees,WindSpeedMPH,WindSpeedGustMPH,Humidity,HourlyPrecipIn,Conditions,Clouds,dailyrainin,SoftwareType,DateUTC
2013-07-30 00:03:00,59.0,55.0,30.17,East,101,0.0,2.0,87,0.00,,,0.00,,2013-07-30 05:03:00,
2013-07-30 00:13:00,59.0,55.0,30.16,East,91,0.0,2.0,87,0.00,,,0.00,,2013-07-30 05:13:00,
2013-07-30 00:23:00,59.0,55.0,30.16,East,95,0.0,1.0,88,0.00,,,0.00,,2013-07-30 05:23:00,
2013-07-30 00:33:00,59.0,55.0,30.17,East,98,0.0,1.0,88,0.00,,,0.00,,2013-07-30 05:33:00,
2013-07-30 00:45:00,58.0,54.0,30.16,East,98,0.0,1.0,88,0.00,,,0.00,,2013-07-30 05:45:00,
2013-07-30 00:52:00,58.0,55.0,30.16,East,98,0.0,0.0,89,0.00,,,0.00,,2013-07-30 05:52:00,
2013-07-30 01:03:00,58.0,55.0,30.16,East,98,0.0,0.0,89,0.00,,,0.00,,2013-07-30 06:03:00,
2013-07-30 01:13:00,58.0,55.0,30.16,East,98,0.0,1.0,89,0.00,,,0.00,,2013-07-30 06:13:00,
2013-07-30 01:23:00,58.0,55.0,30.16,East,101,0.0,1.0,90,0.00,,,0.00,,2013-07-30 06:23:00,
2013-07-30 01:33:00,58.0,55.0,30.16,East,101,0.0,0.0,90,0.00,,,0.00,,2013-07-30 06:33:00,
2013-07-30 01:43:00,57.0,54.0,30.16,ESE,102,0.0,1.0,90,0.00,,,0.00,,2013-07-30 06:43:00,
2013-07-30 01:53:00,57.0,54.0,30.16,ESE,102,0.0,1.0,91,0.00,,,0.00,,2013-07-30 06:53:00,
2013-07-30 02:03:00,57.0,54.0,30.16,ESE,102,0.0,0.0,91,0.00,,,0.00,,2013-07-30 07:03:00,
2013-07-30 02:13:00,57.0,54.0,30.16,ESE,102,0.0,0.0,91,0.00,,,0.00,,2013-07-30 07:13:00,
2013-07-30 02:23:00,57.0,54.0,30.16,ESE,102,0.0,0.0,91,0.00,,,0.00,,2013-07-30 07:23:00,
2013-07-30 02:33:00,56.0,53.0,30.15,ESE,102,0.0,0.0,91,0.00,,,0.00,,2013-07-30 07:33:00,
2013-07-30 02:43:00,56.0,54.0,30.15,ESE,102,0.0,0.0,92,0.00,,,0.00,,2013-07-30 07:43:00,
2013-07-30 02:53:00,56.0,54.0,30.15,ESE,102,0.0,0.0,92,0.00,,,0.00,,2013-07-30 07:53:00,
2013-07-30 03:03:00,56.0,54.0,30.15,ESE,102,0.0,0.0,92,0.00,,,0.00,,2013-07-30 08:03:00,
2013-07-30 03:13:00,56.0,54.0,30.15,ESE,102,0.0,0.0,92,0.00,,,0.00,,2013-07-30 08:13:00,
2013-07-30 03:23:00,56.0,54.0,30.15,ESE,102,0.0,0.0,92,0.00,,,0.00,,2013-07-30 08:23:00,
2013-07-30 03:33:00,56.0,54.0,30.15,ESE,102,0.0,0.0,92,0.00,,,0.00,,2013-07-30 08:33:00,
2013-07-30 03:43:00,56.0,54.0,30.15,ESE,102,0.0,0.0,92,0.00,,,0.00,,2013-07-30 08:43:00,
2013-07-30 03:52:00,56.0,54.0,30.15,ESE,102,0.0,0.0,93,0.00,,,0.00,,2013-07-30 08:52:00,
2013-07-30 04:03:00,56.0,54.0,30.15,ESE,102,0.0,0.0,93,0.00,,,0.00,,2013-07-30 09:03:00,
2013-07-30 04:13:00,56.0,54.0,30.16,ESE,102,0.0,0.0,93,0.00,,,0.00,,2013-07-30 09:13:00,
2013-07-30 04:23:00,56.0,54.0,30.15,ESE,102,0.0,0.0,93,0.00,,,0.00,,2013-07-30 09:23:00,
2013-07-30 04:53:00,-999.0,-99.9,30.15,SE,124,0.0,2.0,-999,0.00,,,0.00,,2013-07-30 09:53:00,
2013-07-30 05:03:00,-999.0,-99.9,30.15,SE,128,0.0,1.0,-999,0.00,,,0.00,,2013-07-30 10:03:00,
2013-07-30 05:12:00,-999.0,-99.9,30.16,SE,128,0.0,1.0,-999,0.00,,,0.00,,2013-07-30 10:12:00,
2013-07-30 05:33:00,-999.0,-99.9,30.16,SE,128,0.0,1.0,-999,0.00,,,0.00,,2013-07-30 10:33:00,
2013-07-30 05:44:00,-999.0,-99.9,30.16,SE,128,0.0,1.0,-999,0.00,,,0.00,,2013-07-30 10:44:00,
2013-07-30 05:52:00,-999.0,-99.9,30.16,SE,128,0.0,0.0,-999,0.00,,,0.00,,2013-07-30 10:52:00,
2013-07-30 06:02:00,-999.0,-99.9,30.16,SE,128,0.0,0.0,-999,0.00,,,0.00,,2013-07-30 11:02:00,
2013-07-30 06:12:00,-999.0,-99.9,30.17,SE,128,0.0,0.0,-999,0.00,,,0.00,,2013-07-30 11:12:00,
2013-07-30 06:22:00,-999.0,-99.9,30.17,SE,128,0.0,0.0,-999,0.00,,,0.00,,2013-07-30 11:22:00,
2013-07-30 06:33:00,-999.0,-99.9,30.17,SE,128,0.0,0.0,-999,0.00,,,0.00,,2013-07-30 11:33:00,
2013-07-30 06:43:00,-999.0,-99.9,30.17,SE,128,0.0,1.0,-999,0.00,,,0.00,,2013-07-30 11:43:00,
2013-07-30 06:53:00,-999.0,-99.9,30.17,SE,128,0.0,0.0,-999,0.00,,,0.00,,2013-07-30 11:53:00,
2013-07-30 07:12:00,-999.0,-99.9,30.17,SE,127,0.0,1.0,-999,0.00,,,0.00,,2013-07-30 12:12:00,
2013-07-30 07:22:00,-999.0,-99.9,30.17,SE,133,0.0,2.0,-999,0.00,,,0.00,,2013-07-30 12:22:00,
2013-07-30 07:33:00,-999.0,-99.9,30.18,SE,138,1.0,3.0,-999,0.00,,,0.00,,2013-07-30 12:33:00,
2013-07-30 07:42:00,-999.0,-99.9,30.18,SSW,207,1.0,4.0,-999,0.00,,,0.00,,2013-07-30 12:42:00,
2013-07-30 07:53:00,-999.0,-99.9,30.17,SSW,207,0.0,1.0,-999,0.00,,,0.00,,2013-07-30 12:53:00,
2013-07-30 08:02:00,-999.0,-99.9,30.17,SSW,207,0.0,3.0,-999,0.00,,,0.00,,2013-07-30 13:02:00,
2013-07-30 08:12:00,-999.0,-99.9,30.17,South,185,2.0,4.0,-999,0.00,,,0.00,,2013-07-30 13:12:00,
2013-07-30 08:22:00,-999.0,-99.9,30.17,South,189,0.0,4.0,-999,0.00,,,0.00,,2013-07-30 13:22:00,
2013-07-30 08:33:00,-999.0,-99.9,30.17,South,189,0.0,2.0,-999,0.00,,,0.00,,2013-07-30 13:33:00,
2013-07-30 08:43:00,-999.0,-99.9,30.17,South,188,0.0,4.0,-999,0.00,,,0.00,,2013-07-30 13:43:00,
2013-07-30 08:53:00,-999.0,-99.9,30.17,ESE,118,0.0,6.0,-999,0.00,,,0.00,,2013-07-30 13:53:00,
2013-07-30 09:03:00,-999.0,-99.9,30.17,SW,217,0.0,2.0,-999,0.00,,,0.00,,2013-07-30 14:03:00,
2013-07-30 09:12:00,64.0,59.0,30.17,South,175,3.0,6.0,85,0.00,,,0.00,,2013-07-30 14:12:00,
2013-07-30 09:22:00,65.0,60.0,30.17,SSW,192,0.0,4.0,83,0.00,,,0.00,,2013-07-30 14:22:00,
2013-07-30 09:33:00,66.0,60.0,30.17,SSW,205,2.0,5.0,82,0.00,,,0.00,,2013-07-30 14:33:00,
2013-07-30 09:43:00,66.0,60.0,30.16,South,187,2.0,8.0,80,0.00,,,0.00,,2013-07-30 14:43:00,
2013-07-30 09:53:00,66.0,59.0,30.16,SSW,205,4.0,8.0,79,0.00,,,0.00,,2013-07-30 14:53:00,
2013-07-30 10:02:00,67.0,60.0,30.16,SSE,157,1.0,4.0,78,0.00,,,0.00,,2013-07-30 15:02:00,
2013-07-30 10:12:00,68.0,61.0,30.16,SSE,161,2.0,7.0,77,0.00,,,0.00,,2013-07-30 15:12:00,
2013-07-30 10:23:00,69.0,60.0,30.16,South,190,1.0,6.0,74,0.00,,,0.00,,2013-07-30 15:23:00,
2013-07-30 10:33:00,70.0,61.0,30.16,SSW,203,2.0,7.0,73,0.00,,,0.00,,2013-07-30 15:33:00,
2013-07-30 10:43:00,70.0,61.0,30.16,SSW,194,0.0,7.0,74,0.00,,,0.00,,2013-07-30 15:43:00,
2013-07-30 10:52:00,70.0,61.0,30.16,SSW,193,4.0,7.0,73,0.00,,,0.00,,2013-07-30 15:52:00,
2013-07-30 11:02:00,71.0,62.0,30.15,South,183,1.0,6.0,73,0.00,,,0.00,,2013-07-30 16:02:00,
2013-07-30 11:12:00,71.0,62.0,30.16,SSE,159,1.0,5.0,72,0.00,,,0.00,,2013-07-30 16:12:00,
2013-07-30 11:22:00,71.0,61.0,30.16,SSW,211,1.0,6.0,71,0.00,,,0.00,,2013-07-30 16:22:00,
2013-07-30 11:33:00,72.0,61.0,30.16,SSW,192,2.0,7.0,69,0.00,,,0.00,,2013-07-30 16:33:00,
2013-07-30 11:44:00,71.0,61.0,30.16,SSW,202,4.0,8.0,71,0.00,,,0.00,,2013-07-30 16:44:00,
2013-07-30 11:52:00,72.0,62.0,30.16,South,186,1.0,8.0,71,0.00,,,0.00,,2013-07-30 16:52:00,
2013-07-30 12:02:00,72.0,62.0,30.15,SE,126,1.0,6.0,71,0.00,,,0.00,,2013-07-30 17:02:00,
2013-07-30 12:12:00,73.0,62.0,30.15,ESE,116,3.0,6.0,69,0.00,,,0.00,,2013-07-30 17:12:00,
2013-07-30 12:22:00,73.0,62.0,30.14,SSW,202,1.0,7.0,68,0.00,,,0.00,,2013-07-30 17:22:00,
2013-07-30 12:32:00,74.0,62.0,30.14,SSW,203,4.0,6.0,67,0.00,,,0.00,,2013-07-30 17:32:00,
2013-07-30 12:43:00,73.0,61.0,30.14,South,189,4.0,11.0,67,0.00,,,0.00,,2013-07-30 17:43:00,
2013-07-30 12:53:00,73.0,61.0,30.14,SSE,165,2.0,9.0,67,0.00,,,0.00,,2013-07-30 17:53:00,
2013-07-30 13:03:00,74.0,62.0,30.13,SW,214,4.0,8.0,66,0.00,,,0.00,,2013-07-30 18:03:00,
2013-07-30 13:12:00,74.0,61.0,30.13,SSW,204,5.0,10.0,64,0.00,,,0.00,,2013-07-30 18:12:00,
2013-07-30 13:23:00,74.0,60.0,30.13,South,187,4.0,11.0,62,0.00,,,0.00,,2013-07-30 18:23:00,
2013-07-30 13:32:00,74.0,61.0,30.13,SSW,194,4.0,9.0,64,0.00,,,0.00,,2013-07-30 18:32:00,
2013-07-30 13:43:00,74.0,60.0,30.12,South,186,5.0,10.0,62,0.00,,,0.00,,2013-07-30 18:43:00,
2013-07-30 13:52:00,75.0,62.0,30.12,NNE,33,2.0,7.0,63,0.00,,,0.00,,2013-07-30 18:52:00,
2013-07-30 14:12:00,75.0,62.0,30.11,South,188,1.0,11.0,63,0.00,,,0.00,,2013-07-30 19:12:00,
2013-07-30 14:22:00,75.0,61.0,30.11,SSW,209,1.0,8.0,62,0.00,,,0.00,,2013-07-30 19:22:00,
2013-07-30 14:33:00,74.0,61.0,30.11,South,188,5.0,10.0,64,0.00,,,0.00,,2013-07-30 19:33:00,
2013-07-30 14:44:00,74.0,62.0,30.11,ENE,74,0.0,7.0,66,0.00,,,0.00,,2013-07-30 19:44:00,
2013-07-30 14:52:00,74.0,61.0,30.10,SW,225,3.0,10.0,63,0.00,,,0.00,,2013-07-30 19:52:00,
2013-07-30 15:02:00,74.0,61.0,30.10,South,188,3.0,6.0,65,0.00,,,0.00,,2013-07-30 20:02:00,
2013-07-30 15:12:00,73.0,61.0,30.09,SW,217,1.0,6.0,65,0.00,,,0.00,,2013-07-30 20:12:00,
2013-07-30 15:22:00,73.0,61.0,30.09,South,175,1.0,6.0,66,0.00,,,0.00,,2013-07-30 20:22:00,
2013-07-30 15:33:00,73.0,61.0,30.09,SSW,194,2.0,5.0,67,0.00,,,0.00,,2013-07-30 20:33:00,
2013-07-30 15:43:00,73.0,62.0,30.09,SE,142,1.0,6.0,69,0.00,,,0.00,,2013-07-30 20:43:00,
2013-07-30 16:02:00,72.0,61.0,30.09,South,180,0.0,1.0,68,0.00,,,0.00,,2013-07-30 21:02:00,
2013-07-30 16:12:00,73.0,62.0,30.09,South,181,0.0,1.0,69,0.00,,,0.00,,2013-07-30 21:12:00,
2013-07-30 16:22:00,73.0,62.0,30.09,SSW,206,4.0,6.0,68,0.00,,,0.00,,2013-07-30 21:22:00,
2013-07-30 16:32:00,72.0,61.0,30.09,SSE,150,3.0,7.0,69,0.00,,,0.00,,2013-07-30 21:32:00,
2013-07-30 16:42:00,72.0,62.0,30.09,South,176,0.0,6.0,70,0.00,,,0.00,,2013-07-30 21:42:00,
2013-07-30 16:52:00,72.0,62.0,30.09,South,188,1.0,6.0,70,0.00,,,0.00,,2013-07-30 21:52:00,
2013-07-30 17:02:00,72.0,61.0,30.09,SSW,209,0.0,5.0,69,0.00,,,0.00,,2013-07-30 22:02:00,
2013-07-30 17:12:00,72.0,61.0,30.09,SW,214,0.0,5.0,68,0.00,,,0.00,,2013-07-30 22:12:00,
2013-07-30 17:22:00,73.0,62.0,30.09,SSW,195,0.0,5.0,69,0.00,,,0.00,,2013-07-30 22:22:00,
2013-07-30 17:32:00,73.0,62.0,30.09,SSW,200,1.0,4.0,69,0.00,,,0.00,,2013-07-30 22:32:00,
2013-07-30 17:43:00,73.0,62.0,30.09,SE,136,1.0,3.0,69,0.00,,,0.00,,2013-07-30 22:43:00,
2013-07-30 17:52:00,72.0,62.0,30.09,NE,36,3.0,5.0,72,0.00,,,0.00,,2013-07-30 22:52:00,
2013-07-30 18:02:00,71.0,62.0,30.09,NE,36,0.0,1.0,74,0.00,,,0.00,,2013-07-30 23:02:00,
2013-07-30 18:12:00,71.0,63.0,30.09,NE,36,0.0,1.0,76,0.00,,,0.00,,2013-07-30 23:12:00,
2013-07-30 18:22:00,71.0,63.0,30.09,ENE,72,2.0,5.0,77,0.00,,,0.00,,2013-07-30 23:22:00,
2013-07-30 18:32:00,70.0,63.0,30.09,NNE,30,1.0,4.0,79,0.00,,,0.00,,2013-07-30 23:32:00,
2013-07-30 18:42:00,69.0,63.0,30.09,NNE,29,1.0,5.0,80,0.00,,,0.00,,2013-07-30 23:42:00,
2013-07-30 18:53:00,70.0,64.0,30.09,NNE,29,0.0,2.0,80,0.00,,,0.00,,2013-07-30 23:53:00,
2013-07-30 19:02:00,70.0,64.0,30.08,NNE,29,0.0,2.0,80,0.00,,,0.00,,2013-07-31 00:02:00,
2013-07-30 19:12:00,70.0,64.0,30.08,NNE,29,0.0,1.0,81,0.00,,,0.00,,2013-07-31 00:12:00,
2013-07-30 19:22:00,70.0,64.0,30.08,NNE,29,0.0,1.0,80,0.00,,,0.00,,2013-07-31 00:22:00,
2013-07-30 19:32:00,70.0,63.0,30.08,NNE,29,0.0,1.0,79,0.00,,,0.00,,2013-07-31 00:32:00,
2013-07-30 19:53:00,69.0,62.0,30.08,SSW,192,3.0,9.0,79,0.00,,,0.00,,2013-07-31 00:53:00,
2013-07-30 20:02:00,69.0,62.0,30.09,SW,223,3.0,9.0,79,0.00,,,0.00,,2013-07-31 01:02:00,
2013-07-30 20:12:00,68.0,62.0,30.08,SSW,194,3.0,11.0,80,0.00,,,0.00,,2013-07-31 01:12:00,
2013-07-30 20:22:00,68.0,62.0,30.09,South,181,5.0,8.0,81,0.00,,,0.00,,2013-07-31 01:22:00,
2013-07-30 20:32:00,67.0,61.0,30.08,SSW,198,4.0,8.0,82,0.00,,,0.00,,2013-07-31 01:32:00,
2013-07-30 20:42:00,67.0,62.0,30.09,South,185,1.0,6.0,83,0.00,,,0.00,,2013-07-31 01:42:00,
2013-07-30 20:52:00,67.0,62.0,30.08,South,190,1.0,6.0,84,0.00,,,0.00,,2013-07-31 01:52:00,
2013-07-30 21:02:00,67.0,62.0,30.08,South,186,0.0,5.0,84,0.00,,,0.00,,2013-07-31 02:02:00,
2013-07-30 21:12:00,67.0,62.0,30.08,SSW,194,0.0,6.0,84,0.00,,,0.00,,2013-07-31 02:12:00,
2013-07-30 21:22:00,67.0,62.0,30.08,SSW,209,2.0,6.0,84,0.00,,,0.00,,2013-07-31 02:22:00,
2013-07-30 21:32:00,66.0,61.0,30.08,South,182,0.0,4.0,85,0.00,,,0.00,,2013-07-31 02:32:00,
2013-07-30 21:42:00,66.0,62.0,30.08,South,182,0.0,4.0,86,0.00,,,0.00,,2013-07-31 02:42:00,
2013-07-30 21:52:00,66.0,62.0,30.08,South,190,0.0,5.0,87,0.00,,,0.00,,2013-07-31 02:52:00,
2013-07-30 22:02:00,65.0,61.0,30.09,SSW,194,1.0,5.0,88,0.00,,,0.00,,2013-07-31 03:02:00,
2013-07-30 22:12:00,65.0,61.0,30.09,SSW,194,0.0,2.0,88,0.00,,,0.00,,2013-07-31 03:12:00,
2013-07-30 22:22:00,65.0,62.0,30.09,SSW,194,0.0,2.0,89,0.00,,,0.00,,2013-07-31 03:22:00,
2013-07-30 22:32:00,65.0,62.0,30.09,SSW,194,0.0,2.0,89,0.00,,,0.00,,2013-07-31 03:32:00,
2013-07-30 22:42:00,65.0,62.0,30.09,SSW,194,0.0,4.0,89,0.00,,,0.00,,2013-07-31 03:42:00,
2013-07-30 22:52:00,65.0,62.0,30.10,South,190,1.0,4.0,90,0.00,,,0.00,,2013-07-31 03:52:00,
2013-07-30 23:02:00,65.0,62.0,30.10,South,171,0.0,5.0,90,0.00,,,0.00,,2013-07-31 04:02:00,
2013-07-30 23:12:00,65.0,62.0,30.09,South,171,0.0,2.0,90,0.00,,,0.00,,2013-07-31 04:12:00,
2013-07-30 23:22:00,65.0,62.0,30.09,South,171,0.0,2.0,90,0.00,,,0.00,,2013-07-31 04:22:00,
2013-07-30 23:32:00,65.0,62.0,30.09,South,171,0.0,2.0,90,0.00,,,0.00,,2013-07-31 04:32:00,
2013-07-30 23:42:00,65.0,62.0,30.09,South,172,1.0,2.0,90,0.00,,,0.00,,2013-07-31 04:42:00,
2013-07-30 23:52:00,65.0,62.0,30.09,South,172,1.0,2.0,90,0.00,,,0.00,,2013-07-31 04:52:00,